Terminal Aerodrome Forecast
Issued by NWS

Home | Current Version | Previous Version | Text Only | Print | Product List | Glossary On
Versions: 1 2 3 4 5 6 7 8 9 10 11 12 13 14 15
197
FTUS41 KGYX 111120
TAFAUG
TAF
KAUG 111120Z 1112/1212 27004KT P6SM FEW250
     FM120300 VRB03KT P6SM OVC050
     FM120600 VRB03KT 1 1/2SM -SN BR OVC020
     FM121100 06007KT 1/2SM SN FG OVC003=

USA.gov is the U.S. government's official web portal to all federal, state and local government web resources and services.